Strong City, Kansas
Current Conditions -  °F | °C
As of 1:53 AM on Saturday 20 Dec 2014 (Local Time) from KEMP Reporting Station
Overcast Overcast  
Wind Chill: 26°   Ceiling: 1500
Heat Index: 33°   Visibility: 8mi
Dew Point: 31°   Wind: 8mph
Humidity: 92%   Direction: 180°S
Pressure: 30.18"   Gusts: NA
Location:  38.4°N, 96.54°W
Report Text: KEMP 200753Z AUTO 18007KT 8SM OVC015 01/M01 A3018 RMK AO2 SLP233 T00061006
Loading
Personal Weather Stations






























Interactive Weather Map New forecast layout! Learn more

10-Day Weather Forecast

Advertisements
Track Severe Weather on mobile